Time;durP1;ratioP1;P1;durP2;ratioP2;P2;SDS_P1;SDS_P2;PMS_P1;PMS_P2;Temp;Humidity;BMP_temperature;BMP_pressure;BME280_temperature;BME280_humidity;BME280_pressure;Samples;Min_cycle;Max_cycle;Signal;HPM_P1;HPM_P2
2021/07/23 00:01:40;;;;;;;8.40;5.03;;;18.00;99.90;;;;;;5029847;28;20199;-40
2021/07/23 00:04:06;;;;;;;7.10;6.40;;;17.90;99.90;;;;;;5039592;28;20324;-40
2021/07/23 00:06:32;;;;;;;6.20;5.60;;;17.90;99.90;;;;;;5039122;28;20201;-43
2021/07/23 00:08:58;;;;;;;6.10;5.20;;;17.90;99.90;;;;;;5031818;28;20213;-40
2021/07/23 00:11:24;;;;;;;6.90;6.17;;;17.90;99.90;;;;;;5029496;28;20476;-41
2021/07/23 00:13:49;;;;;;;6.07;5.47;;;17.80;99.90;;;;;;5027572;28;20295;-40
2021/07/23 00:16:15;;;;;;;5.60;5.10;;;17.70;99.90;;;;;;5032568;28;20603;-44
2021/07/23 00:18:41;;;;;;;6.37;5.87;;;17.70;99.90;;;;;;5041562;28;20205;-40
2021/07/23 00:21:06;;;;;;;6.17;5.53;;;17.60;99.90;;;;;;5030393;28;20190;-42
2021/07/23 00:23:32;;;;;;;6.90;5.87;;;17.60;99.90;;;;;;5028964;28;20267;-41
2021/07/23 00:25:57;;;;;;;6.03;5.53;;;17.60;99.90;;;;;;5040834;28;20199;-41
2021/07/23 00:28:23;;;;;;;7.33;5.73;;;17.50;99.90;;;;;;5028786;28;20213;-40
2021/07/23 00:30:49;;;;;;;6.63;6.03;;;17.50;99.90;;;;;;5027762;28;20222;-42
2021/07/23 00:33:14;;;;;;;6.90;5.67;;;17.50;99.90;;;;;;5034355;28;20621;-43
2021/07/23 00:35:40;;;;;;;6.20;5.53;;;17.50;99.90;;;;;;5031599;28;20186;-39
2021/07/23 00:38:06;;;;;;;6.30;5.70;;;17.40;99.90;;;;;;5028814;28;20270;-43
2021/07/23 00:40:34;;;;;;;8.77;6.50;;;17.40;99.90;;;;;;5036843;28;20190;-41
2021/07/23 00:43:00;;;;;;;7.37;6.77;;;17.40;99.90;;;;;;5028110;28;20193;-42
2021/07/23 00:45:25;;;;;;;6.33;5.17;;;17.40;99.90;;;;;;5027322;28;20430;-42
2021/07/23 00:48:00;;;;;;;6.83;6.00;;;17.40;99.90;;;;;;5041926;28;20201;-39
2021/07/23 00:50:27;;;;;;;6.10;5.60;;;17.40;99.90;;;;;;5044846;28;20232;-43
2021/07/23 00:52:53;;;;;;;7.40;6.37;;;17.30;99.90;;;;;;5031650;28;20730;-40
2021/07/23 00:55:19;;;;;;;6.70;5.60;;;17.20;99.90;;;;;;5030360;28;20437;-44
2021/07/23 00:57:45;;;;;;;7.63;6.53;;;17.20;99.90;;;;;;5028088;28;20283;-42
2021/07/23 01:00:11;;;;;;;6.37;5.77;;;17.10;99.90;;;;;;5028317;28;20429;-40
2021/07/23 01:02:37;;;;;;;6.77;6.10;;;17.10;99.90;;;;;;5033274;28;20509;-44
2021/07/23 01:05:04;;;;;;;6.10;5.50;;;17.10;99.90;;;;;;5041164;28;20431;-40
2021/07/23 01:07:30;;;;;;;7.40;5.90;;;17.10;99.90;;;;;;5031921;28;20591;-42
2021/07/23 01:09:59;;;;;;;6.93;6.20;;;17.10;99.90;;;;;;5036640;28;20443;-40
2021/07/23 01:12:26;;;;;;;6.90;6.20;;;17.10;99.90;;;;;;5031484;28;20421;-41
2021/07/23 01:14:51;;;;;;;9.70;6.67;;;17.00;99.90;;;;;;5027402;28;20435;-43
2021/07/23 01:17:17;;;;;;;5.80;5.30;;;17.00;99.90;;;;;;5028896;28;20543;-43
2021/07/23 01:19:55;;;;;;;6.27;5.77;;;17.00;99.90;;;;;;5042498;28;20654;-43
2021/07/23 01:22:25;;;;;;;8.30;6.50;;;16.90;99.90;;;;;;5027687;28;20189;-41
2021/07/23 01:24:51;;;;;;;6.53;5.87;;;16.90;99.90;;;;;;5034092;28;20902;-41
2021/07/23 01:27:17;;;;;;;9.50;6.60;;;16.80;99.90;;;;;;5028663;28;20457;-42
2021/07/23 01:29:42;;;;;;;7.00;5.90;;;16.80;99.90;;;;;;5027343;28;20428;-39
2021/07/23 01:32:08;;;;;;;7.87;7.13;;;16.70;99.90;;;;;;5030516;28;20438;-40
2021/07/23 01:34:34;;;;;;;6.37;5.53;;;16.80;99.90;;;;;;5040244;28;20684;-41
2021/07/23 01:36:59;;;;;;;7.00;6.20;;;16.80;99.90;;;;;;5041376;28;20194;-43
2021/07/23 01:39:26;;;;;;;7.20;6.10;;;16.70;99.90;;;;;;5029838;28;20729;-40
2021/07/23 01:41:52;;;;;;;6.23;5.40;;;16.70;99.90;;;;;;5028647;28;20360;-40
2021/07/23 01:44:18;;;;;;;6.70;6.10;;;16.70;99.90;;;;;;5027428;28;20974;-43
2021/07/23 01:46:43;;;;;;;7.00;5.90;;;16.70;99.90;;;;;;5034841;28;20239;-43
2021/07/23 01:49:09;;;;;;;7.77;6.60;;;16.70;99.90;;;;;;5037263;28;20204;-40
2021/07/23 01:51:35;;;;;;;6.97;6.27;;;16.50;99.90;;;;;;5036175;28;20254;-43
2021/07/23 01:54:00;;;;;;;7.13;6.40;;;16.40;99.90;;;;;;5026923;28;20253;-40
2021/07/23 01:56:26;;;;;;;6.83;6.23;;;16.30;99.90;;;;;;5039543;28;20445;-40
2021/07/23 01:58:54;;;;;;;6.70;6.00;;;16.30;99.90;;;;;;5027081;28;20229;-44
2021/07/23 02:01:19;;;;;;;6.10;5.50;;;16.20;99.90;;;;;;5026211;28;20198;-41
2021/07/23 02:03:45;;;;;;;7.30;6.53;;;16.20;99.90;;;;;;5027408;28;20480;-45
2021/07/23 02:06:10;;;;;;;8.50;6.47;;;16.10;99.90;;;;;;5029228;28;20201;-46
2021/07/23 02:08:36;;;;;;;6.77;6.10;;;16.00;99.90;;;;;;5026867;28;20197;-40
2021/07/23 02:11:02;;;;;;;6.60;6.00;;;15.90;99.90;;;;;;5035773;28;20214;-41
2021/07/23 02:13:27;;;;;;;8.73;7.10;;;15.80;99.90;;;;;;5025366;28;20189;-42
2021/07/23 02:15:53;;;;;;;8.17;6.20;;;15.70;99.90;;;;;;5025738;28;20205;-43
2021/07/23 02:18:19;;;;;;;8.00;6.17;;;15.70;99.90;;;;;;5035912;28;20571;-40
2021/07/23 02:20:44;;;;;;;6.93;6.20;;;15.60;99.90;;;;;;5037463;28;20667;-43
2021/07/23 02:23:10;;;;;;;6.60;5.87;;;15.60;99.90;;;;;;5024967;28;20194;-40
2021/07/23 02:25:35;;;;;;;8.50;6.17;;;15.60;99.90;;;;;;5031298;28;20198;-43
2021/07/23 02:28:03;;;;;;;7.17;6.47;;;15.70;99.90;;;;;;5026279;28;20190;-41
2021/07/23 02:30:29;;;;;;;12.73;7.33;;;15.60;99.90;;;;;;5026188;28;20256;-40
2021/07/23 02:32:55;;;;;;;7.00;5.87;;;15.60;99.90;;;;;;5030086;28;21063;-46
2021/07/23 02:35:21;;;;;;;8.33;6.73;;;15.70;99.90;;;;;;5045553;28;20182;-43
2021/07/23 02:37:46;;;;;;;8.50;7.10;;;15.70;99.90;;;;;;5026438;28;20693;-40
2021/07/23 02:40:12;;;;;;;6.73;6.13;;;15.60;99.90;;;;;;5026700;28;20583;-41
2021/07/23 02:42:38;;;;;;;7.23;6.53;;;15.60;99.90;;;;;;5026356;28;20190;-43
2021/07/23 02:45:04;;;;;;;8.60;6.67;;;15.60;99.90;;;;;;5025027;28;20341;-41
2021/07/23 02:47:30;;;;;;;7.47;6.77;;;15.60;99.90;;;;;;5036933;28;20201;-42
2021/07/23 02:49:56;;;;;;;8.67;7.00;;;15.60;99.90;;;;;;5034787;28;20425;-42
2021/07/23 02:52:21;;;;;;;7.47;6.47;;;15.60;99.90;;;;;;5030122;28;20222;-44
2021/07/23 02:54:47;;;;;;;8.03;7.23;;;15.50;99.90;;;;;;5025979;28;20202;-42
2021/07/23 02:57:12;;;;;;;7.83;7.03;;;15.50;99.90;;;;;;5035015;28;20423;-40
2021/07/23 02:59:38;;;;;;;7.03;6.33;;;15.60;99.90;;;;;;5025754;28;20903;-40
2021/07/23 03:02:04;;;;;;;7.87;7.07;;;15.50;99.90;;;;;;5025341;28;20300;-45
2021/07/23 03:04:29;;;;;;;7.30;6.57;;;15.40;99.90;;;;;;5034487;28;20226;-40
2021/07/23 03:06:55;;;;;;;12.30;7.07;;;15.40;99.90;;;;;;5041562;28;20258;-41
2021/07/23 03:09:21;;;;;;;7.57;6.77;;;15.30;99.90;;;;;;5027403;28;20329;-44
2021/07/23 03:11:46;;;;;;;8.87;7.00;;;15.30;99.90;;;;;;5030256;28;20267;-43
2021/07/23 03:14:12;;;;;;;7.40;6.60;;;15.30;99.90;;;;;;5025222;28;20750;-44
2021/07/23 03:16:37;;;;;;;7.90;7.10;;;15.30;99.90;;;;;;5025018;28;20194;-42
2021/07/23 03:19:03;;;;;;;8.23;7.43;;;15.30;99.90;;;;;;5041927;28;20270;-40
2021/07/23 03:21:29;;;;;;;7.93;7.13;;;15.30;99.90;;;;;;5040669;28;20229;-40
2021/07/23 03:23:55;;;;;;;8.97;7.60;;;15.30;99.90;;;;;;5028054;28;20190;-41
2021/07/23 03:26:21;;;;;;;9.53;8.53;;;15.30;99.90;;;;;;5025344;28;20285;-46
2021/07/23 03:28:47;;;;;;;8.87;7.50;;;15.30;99.90;;;;;;5025454;28;20433;-40
2021/07/23 03:31:13;;;;;;;8.43;7.07;;;15.30;99.90;;;;;;5025528;28;20571;-40
2021/07/23 03:33:39;;;;;;;9.13;7.97;;;15.40;99.90;;;;;;5028433;28;20214;-44
2021/07/23 03:36:05;;;;;;;8.67;7.87;;;15.30;99.90;;;;;;5040294;28;20787;-40
2021/07/23 03:38:31;;;;;;;10.03;8.03;;;15.20;99.90;;;;;;5025142;28;20425;-43
2021/07/23 03:40:56;;;;;;;9.10;7.70;;;15.20;99.90;;;;;;5033047;28;20456;-41
2021/07/23 03:43:22;;;;;;;8.23;7.43;;;15.20;99.90;;;;;;5026500;28;20194;-43
2021/07/23 03:45:48;;;;;;;8.90;8.00;;;15.30;99.90;;;;;;5030329;28;20193;-40
2021/07/23 03:48:13;;;;;;;8.73;7.57;;;15.20;99.90;;;;;;5030407;28;20235;-40
2021/07/23 03:50:39;;;;;;;9.53;7.43;;;15.10;99.90;;;;;;5039597;28;20281;-40
2021/07/23 03:53:05;;;;;;;8.73;7.57;;;15.20;99.90;;;;;;5040227;28;20198;-46
2021/07/23 03:55:30;;;;;;;9.03;8.13;;;15.20;99.90;;;;;;5028017;28;20232;-40
2021/07/23 03:57:56;;;;;;;10.23;9.17;;;15.20;99.90;;;;;;5026960;28;20318;-42
2021/07/23 04:00:23;;;;;;;11.57;8.30;;;15.20;99.90;;;;;;5025454;28;20256;-41
2021/07/23 04:02:48;;;;;;;10.73;8.80;;;15.10;99.90;;;;;;5025170;28;20605;-40
2021/07/23 04:05:14;;;;;;;9.77;8.77;;;15.10;99.90;;;;;;5028678;28;20475;-45
2021/07/23 04:07:40;;;;;;;8.80;7.90;;;15.10;99.90;;;;;;5037546;28;20190;-43
2021/07/23 04:10:06;;;;;;;9.57;8.60;;;15.00;99.90;;;;;;5025229;28;20210;-41
2021/07/23 04:12:31;;;;;;;8.60;7.53;;;15.00;99.90;;;;;;5026447;28;20343;-42
2021/07/23 04:14:57;;;;;;;14.90;8.43;;;14.90;99.90;;;;;;5024473;28;20406;-44
2021/07/23 04:17:23;;;;;;;8.97;8.10;;;14.90;99.90;;;;;;5028086;28;20186;-41
2021/07/23 04:19:48;;;;;;;9.30;8.33;;;14.90;99.90;;;;;;5030700;28;20205;-40
2021/07/23 04:22:16;;;;;;;9.80;7.80;;;15.00;99.90;;;;;;5030404;28;20187;-41
2021/07/23 04:24:43;;;;;;;8.53;7.63;;;15.00;99.90;;;;;;5024528;28;20195;-40
2021/07/23 04:27:08;;;;;;;9.10;8.20;;;15.00;99.90;;;;;;5035421;28;20421;-43
2021/07/23 04:29:34;;;;;;;9.37;8.40;;;15.00;99.90;;;;;;5025805;28;20421;-42
2021/07/23 04:32:00;;;;;;;10.60;8.50;;;15.10;99.90;;;;;;5028170;28;20218;-43
2021/07/23 04:34:25;;;;;;;9.00;8.10;;;15.30;99.90;;;;;;5037455;28;20189;-42
2021/07/23 04:36:51;;;;;;;9.80;8.80;;;15.30;99.90;;;;;;5040198;28;20627;-40
2021/07/23 04:39:17;;;;;;;10.40;9.30;;;15.30;99.90;;;;;;5028689;28;20186;-43
2021/07/23 04:41:42;;;;;;;10.80;8.40;;;15.30;99.90;;;;;;5034407;28;20661;-43
2021/07/23 04:44:08;;;;;;;12.90;8.70;;;15.30;99.90;;;;;;5028367;28;20209;-41
2021/07/23 04:46:34;;;;;;;11.30;8.73;;;15.30;99.90;;;;;;5035197;28;20202;-40
2021/07/23 04:49:00;;;;;;;9.93;8.67;;;15.40;99.90;;;;;;5032611;28;20202;-45
2021/07/23 04:51:27;;;;;;;12.00;9.30;;;15.40;99.90;;;;;;5038109;28;20202;-45
2021/07/23 04:53:52;;;;;;;11.67;9.23;;;15.40;99.90;;;;;;5037051;28;20615;-45
2021/07/23 04:56:18;;;;;;;10.73;8.63;;;15.40;99.90;;;;;;5026795;28;20516;-42
2021/07/23 04:58:43;;;;;;;10.43;9.40;;;15.40;99.90;;;;;;5027157;28;20265;-43
2021/07/23 05:01:09;;;;;;;12.20;9.80;;;15.40;99.90;;;;;;5028434;28;20575;-41
2021/07/23 05:03:39;;;;;;;10.13;9.13;;;15.50;99.90;;;;;;5035447;28;20216;-40
2021/07/23 05:06:06;;;;;;;13.53;10.40;;;15.50;99.90;;;;;;5040329;28;20363;-46
2021/07/23 05:08:35;;;;;;;12.60;10.83;;;15.60;99.90;;;;;;5030844;28;20852;-41
2021/07/23 05:11:02;;;;;;;15.57;10.40;;;15.60;99.90;;;;;;5029766;28;20595;-41
2021/07/23 05:13:34;;;;;;;12.20;10.13;;;15.60;99.90;;;;;;5035930;28;20431;-45
2021/07/23 05:15:59;;;;;;;18.80;10.77;;;15.70;99.90;;;;;;5026242;28;20517;-44
2021/07/23 05:18:27;;;;;;;15.70;10.97;;;15.70;99.90;;;;;;5027516;28;20906;-42
2021/07/23 05:20:53;;;;;;;16.40;11.30;;;15.60;99.90;;;;;;5042607;28;20947;-40
2021/07/23 05:23:19;;;;;;;12.63;10.10;;;15.70;99.90;;;;;;5032205;28;20487;-40
2021/07/23 05:25:45;;;;;;;12.60;9.83;;;15.70;99.90;;;;;;5027605;28;20425;-41
2021/07/23 05:28:10;;;;;;;15.20;11.33;;;15.80;99.90;;;;;;5034016;28;20766;-44
2021/07/23 05:30:36;;;;;;;14.90;10.43;;;15.90;99.90;;;;;;5026460;28;20210;-44
2021/07/23 05:33:02;;;;;;;11.80;10.53;;;15.90;99.90;;;;;;5028825;28;20628;-40
2021/07/23 05:35:27;;;;;;;12.07;9.93;;;16.00;99.90;;;;;;5035326;28;20305;-43
2021/07/23 05:37:53;;;;;;;13.73;9.67;;;16.00;99.90;;;;;;5041987;28;20170;-39
2021/07/23 05:40:19;;;;;;;15.67;11.20;;;16.00;99.90;;;;;;5028804;28;20292;-40
2021/07/23 05:42:44;;;;;;;12.70;10.10;;;16.10;99.90;;;;;;5029067;28;20217;-44
2021/07/23 05:45:10;;;;;;;15.77;11.23;;;16.10;99.90;;;;;;5026774;28;20596;-40
2021/07/23 05:47:36;;;;;;;14.93;11.97;;;16.10;99.90;;;;;;5035924;28;20186;-41
2021/07/23 05:50:02;;;;;;;14.43;10.93;;;16.20;99.90;;;;;;5040528;28;20416;-42
2021/07/23 05:52:27;;;;;;;16.10;11.37;;;16.10;99.90;;;;;;5041079;28;20304;-44
2021/07/23 05:54:53;;;;;;;12.67;11.20;;;16.20;99.90;;;;;;5029127;28;20202;-40
2021/07/23 05:57:19;;;;;;;16.37;11.23;;;16.30;99.90;;;;;;5035658;28;20200;-45
2021/07/23 05:59:46;;;;;;;13.53;10.23;;;16.40;99.90;;;;;;5029877;28;20191;-41
2021/07/23 06:02:12;;;;;;;15.50;11.53;;;16.50;99.90;;;;;;5027138;28;20192;-40
2021/07/23 06:04:37;;;;;;;14.63;11.10;;;16.60;99.90;;;;;;5027149;28;20452;-43
2021/07/23 06:07:04;;;;;;;14.37;10.57;;;16.70;99.90;;;;;;5037975;28;20277;-42
2021/07/23 06:09:30;;;;;;;16.00;10.43;;;16.90;99.90;;;;;;5028217;28;20225;-40
2021/07/23 06:11:56;;;;;;;13.90;10.67;;;17.00;99.90;;;;;;5032732;28;20955;-43
2021/07/23 06:14:21;;;;;;;16.13;11.77;;;17.10;99.90;;;;;;5027353;28;20421;-43
2021/07/23 06:16:47;;;;;;;11.60;10.40;;;17.20;99.90;;;;;;5023850;28;20212;-41
2021/07/23 06:19:13;;;;;;;12.30;10.60;;;17.30;99.90;;;;;;5026213;28;20576;-43
2021/07/23 06:21:38;;;;;;;13.63;10.80;;;17.40;99.90;;;;;;5033661;28;20204;-43
2021/07/23 06:24:04;;;;;;;13.83;10.07;;;17.50;99.90;;;;;;5029281;28;20260;-46
2021/07/23 06:26:30;;;;;;;15.13;10.47;;;17.60;99.90;;;;;;5026139;28;20186;-42
2021/07/23 06:28:56;;;;;;;16.27;10.10;;;17.70;99.90;;;;;;5027858;28;20230;-40
2021/07/23 06:31:21;;;;;;;11.23;9.43;;;17.80;99.90;;;;;;5026790;28;20214;-43
2021/07/23 06:33:47;;;;;;;11.23;10.00;;;17.90;99.90;;;;;;5030951;28;20281;-43
2021/07/23 06:36:13;;;;;;;12.17;9.17;;;18.00;99.90;;;;;;5032329;28;20193;-43
2021/07/23 06:38:38;;;;;;;15.27;10.33;;;18.10;99.90;;;;;;5029441;28;20664;-40
2021/07/23 06:41:07;;;;;;;10.67;9.27;;;18.20;99.90;;;;;;5025548;28;20198;-43
2021/07/23 06:43:33;;;;;;;10.87;9.10;;;18.30;99.90;;;;;;5037550;28;20194;-45
2021/07/23 06:46:01;;;;;;;12.00;9.90;;;18.30;99.90;;;;;;5030764;28;20788;-48
2021/07/23 06:48:26;;;;;;;13.40;10.20;;;18.40;99.90;;;;;;5031410;28;20781;-40
2021/07/23 06:50:52;;;;;;;10.47;9.43;;;18.50;99.90;;;;;;5036929;28;21005;-46
2021/07/23 06:53:18;;;;;;;12.13;9.93;;;18.50;99.90;;;;;;5036577;28;20297;-42
2021/07/23 06:55:45;;;;;;;12.07;9.37;;;18.60;99.90;;;;;;5044143;28;20189;-40
2021/07/23 06:58:10;;;;;;;10.40;9.40;;;18.60;99.90;;;;;;5040768;28;20862;-43
2021/07/23 07:00:36;;;;;;;12.27;9.83;;;18.80;99.90;;;;;;5025901;28;20445;-42
2021/07/23 07:03:05;;;;;;;11.33;9.20;;;18.80;99.90;;;;;;5025821;28;20182;-41
2021/07/23 07:05:31;;;;;;;12.20;11.03;;;18.90;99.90;;;;;;5039999;28;20489;-44
2021/07/23 07:07:59;;;;;;;11.03;9.93;;;18.90;99.90;;;;;;5042150;28;20993;-40
2021/07/23 07:10:25;;;;;;;11.10;9.80;;;18.90;99.90;;;;;;5031018;28;20339;-46
2021/07/23 07:12:56;;;;;;;12.70;11.07;;;18.90;99.90;;;;;;5029348;28;20539;-43
2021/07/23 07:15:22;;;;;;;13.10;10.33;;;19.00;99.90;;;;;;5025288;28;20785;-43
2021/07/23 07:17:47;;;;;;;16.60;10.10;;;18.90;99.90;;;;;;5025563;28;20413;-41
2021/07/23 07:20:13;;;;;;;11.70;9.17;;;18.90;99.90;;;;;;5032006;28;20189;-46
2021/07/23 07:22:39;;;;;;;12.40;11.07;;;18.90;99.90;;;;;;5038720;28;20475;-41
2021/07/23 07:25:07;;;;;;;11.73;10.53;;;19.00;99.90;;;;;;5031580;28;20716;-42
2021/07/23 07:27:32;;;;;;;9.57;8.47;;;19.10;99.90;;;;;;5032029;28;20447;-44
2021/07/23 07:29:58;;;;;;;17.03;9.70;;;19.30;99.90;;;;;;5030747;28;20422;-43
2021/07/23 07:32:23;;;;;;;14.27;9.13;;;19.50;99.90;;;;;;5025466;28;20558;-41
2021/07/23 07:34:49;;;;;;;15.17;10.60;;;19.60;99.90;;;;;;5029807;28;20205;-42
2021/07/23 07:37:14;;;;;;;11.67;9.07;;;19.70;99.90;;;;;;5039557;28;20299;-40
2021/07/23 07:39:40;;;;;;;11.40;9.77;;;19.80;99.90;;;;;;5028744;28;20205;-43
2021/07/23 07:42:06;;;;;;;12.57;9.00;;;19.90;99.90;;;;;;5026827;28;20734;-41
2021/07/23 07:44:32;;;;;;;10.57;8.70;;;19.90;99.90;;;;;;5031735;28;20194;-41
2021/07/23 07:46:58;;;;;;;12.13;10.27;;;19.90;99.90;;;;;;5033369;28;20784;-40
2021/07/23 07:49:23;;;;;;;9.87;8.93;;;20.00;99.90;;;;;;5023389;28;20534;-43
2021/07/23 07:51:49;;;;;;;11.83;9.47;;;20.10;99.90;;;;;;5035653;28;20229;-43
2021/07/23 07:54:14;;;;;;;10.60;9.57;;;20.00;99.90;;;;;;5044628;28;20245;-44
2021/07/23 07:56:40;;;;;;;11.00;8.93;;;19.90;99.90;;;;;;5025184;28;20478;-42
2021/07/23 07:59:08;;;;;;;10.47;9.37;;;19.90;99.90;;;;;;5029568;28;20236;-43
2021/07/23 08:01:33;;;;;;;11.33;8.83;;;20.00;99.90;;;;;;5025581;28;20218;-41
2021/07/23 08:03:59;;;;;;;9.47;8.50;;;20.20;99.90;;;;;;5026897;28;20967;-40
2021/07/23 08:06:27;;;;;;;8.30;7.50;;;20.20;99.90;;;;;;5047441;28;20493;-41
2021/07/23 08:08:56;;;;;;;8.47;7.60;;;20.20;99.90;;;;;;5042560;28;20204;-42
2021/07/23 08:11:22;;;;;;;7.77;7.10;;;20.10;99.90;;;;;;5029079;28;21045;-42
2021/07/23 08:13:47;;;;;;;10.50;7.33;;;20.10;99.90;;;;;;5041816;28;20495;-44
2021/07/23 08:16:13;;;;;;;8.33;7.53;;;20.10;99.90;;;;;;5028425;28;20183;-40
2021/07/23 08:18:39;;;;;;;8.87;7.20;;;20.10;99.90;;;;;;5028610;28;20218;-40
2021/07/23 08:21:06;;;;;;;11.80;6.70;;;20.10;99.90;;;;;;5034899;28;20855;-45
2021/07/23 08:23:32;;;;;;;8.90;6.97;;;20.00;99.90;;;;;;5043348;28;20812;-43
2021/07/23 08:25:59;;;;;;;8.67;6.83;;;20.00;99.90;;;;;;5027653;28;20488;-42
2021/07/23 08:28:26;;;;;;;9.27;7.20;;;20.10;99.90;;;;;;5038078;28;20695;-46
2021/07/23 08:30:52;;;;;;;9.10;7.30;;;20.10;99.90;;;;;;5028372;28;20451;-43
2021/07/23 08:33:22;;;;;;;9.17;8.07;;;20.00;99.90;;;;;;5028850;28;20822;-41
2021/07/23 08:35:48;;;;;;;8.37;7.33;;;20.00;99.90;;;;;;5027839;28;20457;-43
2021/07/23 08:38:14;;;;;;;9.63;7.30;;;19.90;99.90;;;;;;5040703;28;20443;-41
2021/07/23 08:40:39;;;;;;;11.00;8.47;;;19.80;99.90;;;;;;5040436;28;20496;-41
2021/07/23 08:43:05;;;;;;;8.37;7.50;;;19.90;99.90;;;;;;5032777;28;20244;-41
2021/07/23 08:45:30;;;;;;;7.77;6.97;;;19.90;99.90;;;;;;5030740;28;20192;-40
2021/07/23 08:47:57;;;;;;;8.23;7.17;;;19.90;99.90;;;;;;5033323;28;20194;-45
2021/07/23 08:50:24;;;;;;;9.90;6.60;;;20.00;99.90;;;;;;5030517;28;20679;-40
2021/07/23 08:52:56;;;;;;;10.83;7.03;;;20.10;99.90;;;;;;5042864;28;20744;-41
2021/07/23 08:55:22;;;;;;;10.10;6.50;;;20.20;99.90;;;;;;5029389;28;20421;-44
2021/07/23 08:57:49;;;;;;;8.60;7.63;;;20.30;99.90;;;;;;5029041;28;20911;-43
2021/07/23 09:00:20;;;;;;;7.47;6.70;;;20.30;99.90;;;;;;5028653;28;20453;-40
2021/07/23 09:03:06;;;;;;;8.57;7.13;;;20.40;99.90;;;;;;5028152;28;20508;-40
2021/07/23 09:05:36;;;;;;;9.47;7.20;;;20.40;99.90;;;;;;5036009;28;20472;-43
2021/07/23 09:08:22;;;;;;;9.90;7.30;;;20.50;99.90;;;;;;5035432;28;20418;-43
2021/07/23 09:11:02;;;;;;;7.50;6.77;;;20.70;99.90;;;;;;5027793;28;20480;-41
2021/07/23 09:13:28;;;;;;;10.70;7.37;;;20.80;99.90;;;;;;5035839;28;20423;-45
2021/07/23 09:15:57;;;;;;;8.47;7.50;;;20.90;99.90;;;;;;5028558;28;20777;-41
2021/07/23 09:18:28;;;;;;;9.53;7.57;;;21.00;99.90;;;;;;5027962;28;20178;-43
2021/07/23 09:20:56;;;;;;;9.40;7.20;;;21.10;99.90;;;;;;5035326;28;20427;-40
2021/07/23 09:23:33;;;;;;;8.20;6.53;;;21.20;99.90;;;;;;5042753;28;20422;-42
2021/07/23 09:26:16;;;;;;;11.57;8.03;;;21.30;99.90;;;;;;5027645;28;20421;-43
2021/07/23 09:28:46;;;;;;;9.27;7.00;;;21.40;99.90;;;;;;5032896;28;20768;-41
2021/07/23 09:31:25;;;;;;;10.50;6.73;;;21.50;99.90;;;;;;5027520;28;20457;-43
2021/07/23 09:33:55;;;;;;;9.00;7.13;;;21.60;99.90;;;;;;5027288;28;20424;-41
2021/07/23 09:36:21;;;;;;;10.47;6.83;;;21.80;99.90;;;;;;5035036;28;20428;-43
2021/07/23 09:38:47;;;;;;;7.73;7.07;;;21.90;99.90;;;;;;5039341;28;20425;-43
2021/07/23 09:41:22;;;;;;;9.23;7.90;;;22.10;99.90;;;;;;5034463;28;20687;-41
2021/07/23 09:44:04;;;;;;;8.30;6.57;;;22.20;99.90;;;;;;5026887;28;20408;-42
2021/07/23 09:46:34;;;;;;;9.13;7.30;;;22.30;99.90;;;;;;5035264;28;20417;-41
2021/07/23 09:49:20;;;;;;;9.30;7.70;;;22.30;99.90;;;;;;5026935;28;20401;-42
2021/07/23 09:51:46;;;;;;;8.13;6.87;;;22.30;99.90;;;;;;5034383;28;20491;-46
2021/07/23 09:54:12;;;;;;;8.40;7.50;;;22.40;99.90;;;;;;5040145;28;20432;-43
2021/07/23 09:56:38;;;;;;;14.07;8.70;;;22.60;99.90;;;;;;5026973;28;20421;-42
2021/07/23 09:59:11;;;;;;;8.77;7.20;;;22.70;99.90;;;;;;5035903;28;20439;-47
2021/07/23 10:01:44;;;;;;;8.30;7.13;;;22.70;99.90;;;;;;5027292;28;20413;-44
2021/07/23 10:04:19;;;;;;;10.70;7.70;;;22.70;99.90;;;;;;5028629;28;20457;-41
2021/07/23 10:07:10;;;;;;;9.43;7.33;;;22.80;99.90;;;;;;5036676;28;20526;-42
2021/07/23 10:09:38;;;;;;;10.53;7.53;;;22.90;99.90;;;;;;5033927;28;20763;-44
2021/07/23 10:12:09;;;;;;;12.33;7.77;;;23.00;99.90;;;;;;5027090;28;20453;-42
2021/07/23 10:14:39;;;;;;;9.47;7.93;;;23.10;99.90;;;;;;5031868;28;20444;-40
2021/07/23 10:17:07;;;;;;;11.33;8.90;;;23.20;99.90;;;;;;5026828;28;20545;-43
2021/07/23 10:19:35;;;;;;;10.03;8.47;;;23.20;99.90;;;;;;5026604;28;20432;-43
2021/07/23 10:22:02;;;;;;;11.00;9.07;;;23.20;99.90;;;;;;5038657;28;20787;-42
2021/07/23 10:24:33;;;;;;;13.20;9.10;;;23.10;99.90;;;;;;5042499;28;20451;-41
2021/07/23 10:27:06;;;;;;;9.87;8.53;;;23.10;99.90;;;;;;5029381;28;20428;-44
2021/07/23 10:29:52;;;;;;;12.57;9.33;;;23.00;99.90;;;;;;5027920;28;20432;-42
2021/07/23 10:32:26;;;;;;;11.70;9.23;;;23.10;99.90;;;;;;5026615;28;20477;-42
2021/07/23 10:34:55;;;;;;;11.53;8.73;;;23.20;99.90;;;;;;5025454;28;20420;-43
2021/07/23 10:37:30;;;;;;;10.73;9.63;;;23.30;99.90;;;;;;5033163;28;20471;-48
2021/07/23 10:40:07;;;;;;;12.97;9.20;;;23.10;99.90;;;;;;5028805;28;20437;-43
2021/07/23 10:42:41;;;;;;;10.47;8.83;;;23.10;99.90;;;;;;5026144;28;20436;-43
2021/07/23 10:45:09;;;;;;;11.37;10.17;;;23.20;99.90;;;;;;5035388;28;20425;-44
2021/07/23 10:47:40;;;;;;;13.00;10.63;;;23.30;99.90;;;;;;5033504;28;20691;-41
2021/07/23 10:50:09;;;;;;;10.87;9.60;;;23.40;99.90;;;;;;5024337;28;20428;-46
2021/07/23 10:52:36;;;;;;;13.00;10.70;;;23.40;99.90;;;;;;5038575;28;20468;-43
2021/07/23 10:55:12;;;;;;;11.07;9.97;;;23.50;99.90;;;;;;5036293;28;20488;-44
2021/07/23 10:57:38;;;;;;;11.43;10.23;;;23.50;99.90;;;;;;5025996;28;20562;-41
2021/07/23 11:00:05;;;;;;;10.13;9.03;;;23.50;99.90;;;;;;5031215;28;20429;-41
2021/07/23 11:02:30;;;;;;;11.83;10.03;;;23.60;99.90;;;;;;5025949;28;20431;-41
2021/07/23 11:05:07;;;;;;;10.97;9.87;;;23.60;99.90;;;;;;5033291;28;20781;-44
2021/07/23 11:07:33;;;;;;;12.00;10.23;;;23.70;99.90;;;;;;5029523;28;20198;-45
2021/07/23 11:09:59;;;;;;;12.33;9.63;;;23.70;99.90;;;;;;5040383;28;20498;-43
2021/07/23 11:12:32;;;;;;;11.93;10.30;;;23.70;99.90;;;;;;5029777;28;20473;-46
2021/07/23 11:15:00;;;;;;;13.97;11.33;;;23.80;99.90;;;;;;5026892;28;20186;-41
2021/07/23 11:17:30;;;;;;;12.37;10.50;;;23.80;99.90;;;;;;5025999;28;20471;-41
2021/07/23 11:19:58;;;;;;;13.07;10.40;;;23.80;99.90;;;;;;5025752;28;20783;-43
2021/07/23 11:22:36;;;;;;;13.60;10.17;;;24.00;99.90;;;;;;5033737;28;20962;-42
2021/07/23 11:25:08;;;;;;;14.53;10.13;;;24.10;99.90;;;;;;5035979;28;20421;-43
2021/07/23 11:27:35;;;;;;;12.97;10.30;;;24.10;99.90;;;;;;5032629;28;20415;-46
2021/07/23 11:30:12;;;;;;;14.80;9.70;;;24.20;99.90;;;;;;5044664;28;20914;-41
2021/07/23 11:32:53;;;;;;;16.13;11.30;;;24.30;99.90;;;;;;5025843;28;20825;-45
2021/07/23 11:35:20;;;;;;;15.07;10.63;;;24.40;99.90;;;;;;5024416;28;20507;-41
2021/07/23 11:37:47;;;;;;;11.70;10.50;;;24.40;99.90;;;;;;5030716;28;20854;-46
2021/07/23 11:40:16;;;;;;;11.63;10.33;;;24.40;99.90;;;;;;5035527;28;20487;-44
2021/07/23 11:42:45;;;;;;;11.47;9.47;;;24.40;99.90;;;;;;5028496;28;20490;-44
2021/07/23 11:45:13;;;;;;;12.10;10.80;;;24.50;99.90;;;;;;5036900;28;20563;-42
2021/07/23 11:47:40;;;;;;;13.60;11.10;;;24.70;99.90;;;;;;5029905;28;20433;-45
2021/07/23 11:50:32;;;;;;;13.10;11.70;;;24.70;99.90;;;;;;5028027;28;20425;-46
2021/07/23 11:53:03;;;;;;;10.83;9.73;;;24.60;99.90;;;;;;5041118;28;20920;-42
2021/07/23 11:55:40;;;;;;;10.60;9.50;;;24.70;99.90;;;;;;5048482;28;20424;-41
2021/07/23 11:58:06;;;;;;;9.47;8.57;;;24.70;99.90;;;;;;5032476;28;20428;-41
2021/07/23 12:00:32;;;;;;;10.77;9.77;;;24.80;99.90;;;;;;5033877;28;20475;-42
2021/07/23 12:03:23;;;;;;;13.30;10.13;;;24.90;99.90;;;;;;5028948;28;20544;-43
2021/07/23 12:05:49;;;;;;;9.20;8.20;;;24.90;99.90;;;;;;5041563;28;20181;-45
2021/07/23 12:08:16;;;;;;;10.90;9.90;;;25.00;99.00;;;;;;5038578;28;20470;-43
2021/07/23 12:10:42;;;;;;;11.83;10.73;;;25.00;98.50;;;;;;5039237;28;20819;-43
2021/07/23 12:13:11;;;;;;;13.20;11.83;;;25.00;99.30;;;;;;5028885;28;20429;-44
2021/07/23 12:15:45;;;;;;;11.47;10.27;;;24.90;99.10;;;;;;5040829;28;20501;-45
2021/07/23 12:18:18;;;;;;;11.83;10.50;;;24.80;99.90;;;;;;5011178;28;20432;-44
2021/07/23 12:20:44;;;;;;;10.30;9.30;;;25.00;99.90;;;;;;5028766;28;20481;-45
2021/07/23 12:23:10;;;;;;;10.33;9.30;;;25.00;99.90;;;;;;5037945;28;20593;-46
2021/07/23 12:25:45;;;;;;;8.53;7.60;;;25.00;99.70;;;;;;5037064;28;20422;-43
2021/07/23 12:28:15;;;;;;;9.43;8.47;;;25.10;99.80;;;;;;5028638;28;20423;-42
2021/07/23 12:30:42;;;;;;;10.33;9.17;;;25.10;98.90;;;;;;5035370;28;21051;-41
2021/07/23 12:33:16;;;;;;;10.63;9.53;;;25.10;98.50;;;;;;5028713;28;20772;-40
2021/07/23 12:35:50;;;;;;;9.33;8.10;;;25.20;99.90;;;;;;5035716;28;20941;-42
2021/07/23 12:38:16;;;;;;;11.37;9.23;;;25.20;99.90;;;;;;5038744;28;20800;-44
2021/07/23 12:40:57;;;;;;;10.80;9.80;;;25.30;99.90;;;;;;5042602;28;20424;-43
2021/07/23 12:43:23;;;;;;;13.37;10.50;;;25.30;99.60;;;;;;5030672;28;20507;-43